»·PEaware :: FFT2512 KABQ-KPHX

FFT2512 :: KABQ-KPHX

FLIGHT INFORMATION

Flight Status: Arrived
Operator:
Frontier Airlines
More flights by this operator :: More flights under this callsign
Pilot: Anonymous A. (29301)
Aircraft: AIRBUS A320
(A320)
More flights by this aircraft type
Origin: KABQ Albuquerque Intl Sunport
United States
Destination: KPHX Phoenix Sky Harbor Intl
United States
More flights between these airports :: More routes between these airports
Route: RDRNR3 ZUN EAGUL6
File this flight plan on PilotEdge
Remarks:
Altitude:
(Current/Filed)
36,000ft
Speed:
(Current/Filed)
270kts
Departed: 28-Apr-20 09:08 AM
Arrived: 28-Apr-20 10:11 AM
Distance/Time
Traveled:
285nm/1:03
Distance/Time
To Go:
Arrived

Flight Plot

Page will automatically refresh every two minutes.


Map Options




Map Legend


Flown Route
Filed Route
Departure Airport
Arrival Airport
Navaid (VOR, NDB)
Fix

Horizontal Profiles

Position Reports

Time Latitude Longitude Heading Altitude Ground
Speed
28-Apr-20 08:43 35.046892 -106.615382 11 5320ft 0kts
28-Apr-20 08:44 35.046892 -106.615382 11 5320ft 0kts
28-Apr-20 08:45 35.046892 -106.615382 11 5320ft 0kts
28-Apr-20 08:46 35.046892 -106.615382 11 5320ft 0kts
28-Apr-20 08:47 35.046892 -106.615382 11 5320ft 0kts
28-Apr-20 08:48 35.046892 -106.615382 11 5320ft 0kts
28-Apr-20 08:49 35.046892 -106.615382 11 5320ft 0kts
28-Apr-20 08:50 35.046892 -106.615382 11 5320ft 0kts
28-Apr-20 08:51 35.046892 -106.615382 11 5320ft 0kts
28-Apr-20 08:52 35.046892 -106.615382 11 5320ft 0kts
28-Apr-20 08:53 35.046892 -106.615382 11 5320ft 0kts
28-Apr-20 08:54 35.046892 -106.615382 11 5320ft 0kts
28-Apr-20 08:55 35.046892 -106.615382 11 5320ft 0kts
28-Apr-20 08:56 35.046653 -106.615579 9 5320ft 2kts
28-Apr-20 08:57 35.046118 -106.615708 10 5319ft 2kts
28-Apr-20 08:58 35.045670 -106.615331 280 5320ft 2kts
28-Apr-20 08:59 35.045662 -106.615177 269 5320ft 0kts
28-Apr-20 09:00 35.045662 -106.615177 269 5320ft 0kts
28-Apr-20 09:01 35.045662 -106.615177 269 5320ft 0kts
28-Apr-20 09:02 35.045661 -106.615254 269 5320ft 1kts
28-Apr-20 09:03 35.045603 -106.616394 264 5318ft 5kts
28-Apr-20 09:04 35.045573 -106.618881 270 5316ft 9kts
28-Apr-20 09:05 35.044822 -106.621403 171 5313ft 7kts
28-Apr-20 09:06 35.044344 -106.620511 88 5314ft 2kts
28-Apr-20 09:07 35.044033 -106.576638 91 6268ft 209kts
28-Apr-20 09:08 35.058650 -106.500125 34 9082ft 286kts
28-Apr-20 09:09 35.130020 -106.519692 296 10196ft 292kts
28-Apr-20 09:10 35.122465 -106.611966 256 9955ft 278kts
28-Apr-20 09:11 35.103251 -106.703804 257 9961ft 278kts
28-Apr-20 09:12 35.097186 -106.796437 281 10533ft 284kts
28-Apr-20 09:13 35.110986 -106.892451 273 12069ft 290kts
28-Apr-20 09:14 35.093382 -106.990883 259 13060ft 302kts
28-Apr-20 09:15 35.072859 -107.092795 259 16346ft 318kts
28-Apr-20 09:16 35.051318 -107.199495 260 19403ft 331kts
28-Apr-20 09:17 35.036223 -107.311607 271 21805ft 341kts
28-Apr-20 09:18 35.032562 -107.428989 272 24280ft 354kts
28-Apr-20 09:19 35.028620 -107.551606 272 26505ft 368kts
28-Apr-20 09:20 35.024441 -107.677759 272 28496ft 380kts
28-Apr-20 09:21 35.019978 -107.808246 272 30331ft 390kts
28-Apr-20 09:22 35.015258 -107.942202 272 31898ft 401kts
28-Apr-20 09:24 35.010243 -108.079981 272 33324ft 411kts
28-Apr-20 09:25 35.004952 -108.220920 272 34585ft 419kts
28-Apr-20 09:26 34.999697 -108.356618 272 35758ft 423kts
28-Apr-20 09:27 34.994007 -108.498978 272 36245ft 418kts
28-Apr-20 09:28 34.988214 -108.640614 272 36251ft 420kts
28-Apr-20 09:29 34.982228 -108.782603 271 36251ft 420kts
28-Apr-20 09:30 34.976069 -108.924748 271 36243ft 419kts
28-Apr-20 09:31 34.969761 -109.066542 272 36234ft 419kts
28-Apr-20 09:32 34.946911 -109.207024 252 36222ft 437kts
28-Apr-20 09:33 34.897309 -109.342532 251 36224ft 440kts
28-Apr-20 09:34 34.847389 -109.478808 251 36225ft 441kts
28-Apr-20 09:35 34.797755 -109.613790 251 36225ft 441kts
28-Apr-20 09:36 34.748319 -109.747621 251 36237ft 442kts
28-Apr-20 09:37 34.695832 -109.883209 245 36263ft 445kts
28-Apr-20 09:38 34.635184 -110.013880 246 35671ft 444kts
28-Apr-20 09:39 34.574457 -110.144540 246 34715ft 444kts
28-Apr-20 09:39 34.524089 -110.252507 246 33895ft 437kts
28-Apr-20 09:41 34.460216 -110.388984 246 32837ft 427kts
28-Apr-20 09:42 34.402219 -110.512461 246 31880ft 418kts
28-Apr-20 09:42 34.354551 -110.613626 246 31079ft 411kts
28-Apr-20 09:43 34.298510 -110.732180 245 30022ft 402kts
28-Apr-20 09:45 34.234682 -110.866706 245 27739ft 389kts
28-Apr-20 09:45 34.190394 -110.959764 244 26121ft 380kts
28-Apr-20 09:46 34.138358 -111.068703 241 24192ft 368kts
28-Apr-20 09:47 34.071143 -111.160528 229 22279ft 361kts
28-Apr-20 09:48 34.003455 -111.247302 229 20400ft 349kts
28-Apr-20 09:49 33.938263 -111.330679 228 18576ft 337kts
28-Apr-20 09:50 33.876395 -111.412195 237 16922ft 321kts
28-Apr-20 09:51 33.829438 -111.501797 238 15221ft 312kts
28-Apr-20 09:52 33.783772 -111.588504 238 13663ft 303kts
28-Apr-20 09:53 33.738642 -111.673146 237 12432ft 298kts
28-Apr-20 09:54 33.696162 -111.752716 237 11634ft 270kts
28-Apr-20 09:55 33.656314 -111.827874 237 10418ft 264kts
28-Apr-20 09:56 33.618697 -111.898627 237 9740ft 240kts
28-Apr-20 09:57 33.582958 -111.965794 236 8692ft 238kts
28-Apr-20 09:58 33.547108 -112.033049 238 7600ft 240kts
28-Apr-20 09:59 33.525319 -112.105660 271 6953ft 239kts
28-Apr-20 10:00 33.524319 -112.184720 268 5888ft 234kts
28-Apr-20 10:01 33.522143 -112.260353 269 4799ft 203kts
28-Apr-20 10:02 33.496100 -112.309036 172 4436ft 192kts
28-Apr-20 10:03 33.450056 -112.282256 129 3935ft 186kts
28-Apr-20 10:04 33.430265 -112.234715 94 3929ft 138kts
28-Apr-20 10:05 33.429002 -112.189050 87 3816ft 136kts
28-Apr-20 10:06 33.428890 -112.144290 88 2986ft 132kts
28-Apr-20 10:07 33.428904 -112.100839 89 2324ft 130kts
28-Apr-20 10:08 33.428895 -112.057554 90 1662ft 129kts
28-Apr-20 10:09 33.428854 -112.016738 89 1123ft 65kts
28-Apr-20 10:10 33.428901 -112.011928 79 1125ft 13kts
28-Apr-20 10:11 33.430835 -112.008938 356 1128ft 11kts
28-Apr-20 10:12 33.431947 -112.009004 357 1129ft 0kts
28-Apr-20 10:13 33.432150 -112.008415 89 1129ft 8kts
28-Apr-20 10:14 33.433966 -112.007832 292 1130ft 5kts

Navigation Log

Ident Type
Flight plan parsing failed, navigation log unavailable